createdAt,value
2022-10-24T00:00:51.870Z,95315.78
2022-10-24T00:03:19.684Z,95317.72
2022-10-24T00:05:49.279Z,95333.59
2022-10-24T00:08:17.758Z,95321.81
2022-10-24T00:10:49.541Z,95320.28
2022-10-24T00:13:18.616Z,95325.69
2022-10-24T00:15:47.901Z,95320.41
2022-10-24T00:18:16.089Z,95309.34
2022-10-24T00:20:45.110Z,95315.66
2022-10-24T00:23:13.663Z,95328.88
2022-10-24T00:25:41.750Z,95345.78
2022-10-24T00:28:10.907Z,95361.66
2022-10-24T00:30:38.777Z,95382.97
2022-10-24T00:33:06.665Z,95373.28
2022-10-24T00:35:34.423Z,95383.38
2022-10-24T00:38:02.204Z,95375.94
2022-10-24T00:40:29.986Z,95351.66
2022-10-24T00:42:57.794Z,95338.41
2022-10-24T00:45:46.922Z,95330.13
2022-10-24T00:48:20.367Z,95329.84
2022-10-24T00:50:50.724Z,95329.78
2022-10-24T00:53:19.709Z,95312.34
2022-10-24T00:55:50.523Z,95303.31
2022-10-24T00:58:21.972Z,95296.00
2022-10-24T01:00:51.160Z,95291.13
2022-10-24T01:03:19.224Z,95293.91
2022-10-24T01:06:05.664Z,95283.16
2022-10-24T01:08:44.248Z,95275.34
2022-10-24T01:11:24.774Z,95259.13
2022-10-24T01:14:03.086Z,95239.16
2022-10-24T01:16:40.891Z,95247.09
2022-10-24T01:19:29.857Z,95229.47
2022-10-24T01:22:02.137Z,95218.78
2022-10-24T01:24:42.715Z,95205.97
2022-10-24T01:27:39.132Z,95206.53
2022-10-24T01:30:10.515Z,95204.53
2022-10-24T01:32:45.994Z,95185.69
2022-10-24T01:38:05.383Z,95201.94
2022-10-24T01:40:37.369Z,95192.78
2022-10-24T01:43:12.432Z,95194.44
2022-10-24T01:45:46.479Z,95184.53
2022-10-24T01:48:18.362Z,95173.97
2022-10-24T01:50:48.500Z,95186.19
2022-10-24T01:53:18.177Z,95186.19
2022-10-24T01:55:48.339Z,95189.75
2022-10-24T01:58:16.124Z,95171.94
2022-10-24T02:00:47.453Z,95180.81
2022-10-24T02:03:23.500Z,95183.75
2022-10-24T02:05:54.717Z,95157.88
2022-10-24T02:08:29.937Z,95124.63
2022-10-24T02:11:01.136Z,95100.75
2022-10-24T02:13:33.396Z,95095.44
2022-10-24T02:16:04.440Z,95105.75
2022-10-24T02:18:34.598Z,95091.06
2022-10-24T02:21:13.657Z,95091.06
2022-10-24T02:23:48.667Z,95064.34
2022-10-24T02:26:25.728Z,95071.72
2022-10-24T02:28:59.706Z,95058.47
2022-10-24T02:31:34.099Z,95044.81
2022-10-24T02:34:04.821Z,95041.66
2022-10-24T02:36:34.630Z,95051.84
2022-10-24T02:39:06.700Z,95037.19
2022-10-24T02:41:38.025Z,95040.75
2022-10-24T02:44:08.177Z,95038.75
2022-10-24T02:46:38.317Z,95038.50
2022-10-24T02:49:06.913Z,95040.44
2022-10-24T02:51:39.122Z,95030.78
2022-10-24T02:54:07.025Z,95037.84
2022-10-24T02:56:36.102Z,95048.91
2022-10-24T02:59:04.086Z,95043.66
2022-10-24T03:01:31.961Z,95029.59
2022-10-24T03:04:01.106Z,95030.19
2022-10-24T03:06:29.553Z,95034.13
2022-10-24T03:08:57.603Z,95031.53
2022-10-24T03:11:25.612Z,95050.16
2022-10-24T03:13:53.338Z,95042.63
2022-10-24T03:16:21.265Z,95049.03
2022-10-24T03:18:49.523Z,95046.22
2022-10-24T03:21:18.736Z,95054.63
2022-10-24T03:23:46.716Z,95055.56
2022-10-24T03:26:14.684Z,95050.97
2022-10-24T03:28:42.614Z,95050.75
2022-10-24T03:31:10.631Z,95069.16
2022-10-24T03:33:38.513Z,95062.00
2022-10-24T03:36:07.204Z,95065.50
2022-10-24T03:38:36.403Z,95070.88
2022-10-24T03:41:05.199Z,95098.25
2022-10-24T03:43:33.046Z,95081.13
2022-10-24T03:46:00.869Z,95063.06
2022-10-24T03:48:28.967Z,95083.97
2022-10-24T03:50:56.929Z,95086.56
2022-10-24T03:53:24.882Z,95080.25
2022-10-24T03:55:54.082Z,95081.13
2022-10-24T03:58:21.886Z,95087.88
2022-10-24T04:00:49.739Z,95089.88
2022-10-24T04:03:17.546Z,95086.84
2022-10-24T04:05:45.493Z,95081.69
2022-10-24T04:08:13.319Z,95092.81
2022-10-24T04:10:41.084Z,95099.53
2022-10-24T04:13:10.294Z,95103.91
2022-10-24T04:15:38.353Z,95091.00
2022-10-24T04:18:08.339Z,95103.69
2022-10-24T04:20:36.332Z,95119.41
2022-10-24T04:23:04.671Z,95127.00
2022-10-24T04:25:32.857Z,95118.84
2022-10-24T04:28:00.953Z,95124.66
2022-10-24T04:30:30.298Z,95123.38
2022-10-24T04:33:00.556Z,95132.13
2022-10-24T04:35:28.397Z,95141.09
2022-10-24T04:37:56.363Z,95130.06
2022-10-24T04:40:24.232Z,95128.50
2022-10-24T04:42:52.098Z,95124.78
2022-10-24T04:45:20.545Z,95126.13
2022-10-24T04:47:49.868Z,95106.78
2022-10-24T04:50:18.744Z,95112.53
2022-10-24T04:52:46.840Z,95124.00
2022-10-24T04:55:14.785Z,95114.69
2022-10-24T04:57:43.007Z,95107.50
2022-10-24T05:00:13.055Z,95105.56
2022-10-24T05:02:40.992Z,95097.69
2022-10-24T05:05:10.807Z,95106.16
2022-10-24T05:07:38.781Z,95101.53
2022-10-24T05:10:07.626Z,95111.75
2022-10-24T05:12:36.615Z,95114.75
2022-10-24T05:15:05.555Z,95105.44
2022-10-24T05:17:33.965Z,95115.75
2022-10-24T05:20:02.384Z,95108.00
2022-10-24T05:22:31.597Z,95112.97
2022-10-24T05:25:00.799Z,95126.78
2022-10-24T05:27:28.867Z,95124.00
2022-10-24T05:29:59.535Z,95125.84
2022-10-24T05:32:27.712Z,95129.31
2022-10-24T05:34:55.888Z,95139.78
2022-10-24T05:37:23.978Z,95146.09
2022-10-24T05:39:53.183Z,95138.41
2022-10-24T05:42:21.025Z,95153.25
2022-10-24T05:44:49.044Z,95150.53
2022-10-24T05:47:16.862Z,95148.28
2022-10-24T05:49:44.655Z,95151.06
2022-10-24T05:52:12.471Z,95156.22
2022-10-24T05:54:55.143Z,95165.19
2022-10-24T05:57:29.959Z,95170.34
2022-10-24T05:59:57.858Z,95175.50
2022-10-24T06:02:25.849Z,95177.31
2022-10-24T06:04:55.426Z,95191.78
2022-10-24T06:07:23.232Z,95174.72
2022-10-24T06:09:51.998Z,95178.31
2022-10-24T06:12:19.792Z,95180.66
2022-10-24T06:14:48.935Z,95177.31
2022-10-24T06:17:16.692Z,95179.31
2022-10-24T06:19:44.961Z,95172.78
2022-10-24T06:22:12.757Z,95180.16
2022-10-24T06:24:40.567Z,95165.47
2022-10-24T06:27:08.425Z,95164.69
2022-10-24T06:29:36.832Z,95171.56
2022-10-24T06:32:06.208Z,95176.88
2022-10-24T06:34:34.100Z,95166.91
2022-10-24T06:37:01.871Z,95166.13
2022-10-24T06:39:29.639Z,95154.44
2022-10-24T06:41:57.740Z,95152.91
2022-10-24T06:44:27.223Z,95147.81
2022-10-24T06:46:55.112Z,95139.28
2022-10-24T06:49:24.305Z,95124.94
2022-10-24T06:51:52.075Z,95140.00
2022-10-24T06:54:19.869Z,95143.22
2022-10-24T06:56:47.717Z,95154.00
2022-10-24T06:59:17.630Z,95156.34
2022-10-24T07:01:46.300Z,95153.75
2022-10-24T07:04:14.205Z,95162.06
2022-10-24T07:06:43.394Z,95165.66
2022-10-24T07:09:15.121Z,95159.72
2022-10-24T07:11:43.920Z,95145.69
2022-10-24T07:14:12.206Z,95149.19
2022-10-24T07:16:40.741Z,95160.28
2022-10-24T07:19:08.957Z,95164.94
2022-10-24T07:21:36.888Z,95187.88
2022-10-24T07:24:07.386Z,95177.69
2022-10-24T07:26:35.221Z,95188.38
2022-10-24T07:31:50.239Z,95189.00
2022-10-24T07:34:18.612Z,95189.31
2022-10-24T07:36:46.390Z,95187.31
2022-10-24T07:39:15.528Z,95190.44
2022-10-24T07:41:44.394Z,95190.66
2022-10-24T07:44:12.181Z,95196.03
2022-10-24T07:46:42.018Z,95195.25
2022-10-24T07:49:10.414Z,95191.88
2022-10-24T07:51:38.193Z,95200.75
2022-10-24T07:54:06.004Z,95202.59
2022-10-24T07:56:35.293Z,95212.84
2022-10-24T07:59:09.210Z,95229.94
2022-10-24T08:01:41.575Z,95227.72
2022-10-24T08:04:10.866Z,95234.47
2022-10-24T08:06:38.757Z,95219.97
2022-10-24T08:09:06.500Z,95223.44
2022-10-24T08:11:35.764Z,95220.97
2022-10-24T08:14:03.717Z,95221.94
2022-10-24T08:16:31.665Z,95218.91
2022-10-24T08:18:59.773Z,95216.63
2022-10-24T08:21:27.628Z,95211.59
2022-10-24T08:23:56.274Z,95216.69
2022-10-24T08:26:26.144Z,95202.03
2022-10-24T08:28:57.423Z,95214.41
2022-10-24T08:31:26.296Z,95216.00
2022-10-24T08:33:55.385Z,95212.94
2022-10-24T08:36:28.021Z,95217.13
2022-10-24T08:38:55.986Z,95216.66
2022-10-24T08:41:32.011Z,95214.31
2022-10-24T08:44:05.237Z,95216.66
2022-10-24T08:46:44.185Z,95222.13
2022-10-24T08:49:21.522Z,95234.63
2022-10-24T08:51:54.231Z,95233.94
2022-10-24T08:54:25.432Z,95241.31
2022-10-24T08:56:57.916Z,95241.63
2022-10-24T08:59:30.127Z,95243.53
2022-10-24T09:02:04.559Z,95243.97
2022-10-24T09:04:40.360Z,95251.97
2022-10-24T09:07:15.421Z,95255.13
2022-10-24T09:09:47.668Z,95252.78
2022-10-24T09:12:17.644Z,95250.19
2022-10-24T09:14:49.022Z,95241.44
2022-10-24T09:17:20.868Z,95243.00
2022-10-24T09:19:53.606Z,95248.28
2022-10-24T09:22:22.837Z,95235.19
2022-10-24T09:24:55.419Z,95238.34
2022-10-24T09:27:26.890Z,95224.94
2022-10-24T09:29:57.620Z,95234.59
2022-10-24T09:32:30.633Z,95226.94
2022-10-24T09:35:01.659Z,95229.25
2022-10-24T09:37:42.510Z,95224.16
2022-10-24T09:40:21.032Z,95215.41
2022-10-24T09:42:52.329Z,95203.94
2022-10-24T09:45:38.485Z,95217.06
2022-10-24T09:48:17.267Z,95200.22
2022-10-24T09:50:46.656Z,95210.25
2022-10-24T09:53:28.230Z,95200.69
2022-10-24T09:55:59.773Z,95208.16
2022-10-24T09:58:32.677Z,95213.97
2022-10-24T10:01:06.867Z,95223.31
2022-10-24T10:03:36.182Z,95211.59
2022-10-24T10:06:15.600Z,95228.09
2022-10-24T10:08:51.210Z,95223.81
2022-10-24T10:11:26.588Z,95214.28
2022-10-24T10:13:55.502Z,95210.69
2022-10-24T10:16:27.449Z,95212.91
2022-10-24T10:19:03.955Z,95211.22
2022-10-24T10:21:53.164Z,95202.91
2022-10-24T10:24:27.217Z,95192.44
2022-10-24T10:26:55.062Z,95202.69
2022-10-24T10:29:24.805Z,95193.72
2022-10-24T10:32:01.213Z,95206.63
2022-10-24T10:34:37.782Z,95210.44
2022-10-24T10:37:23.555Z,95207.50
2022-10-24T10:40:05.178Z,95220.63
2022-10-24T10:42:39.929Z,95225.22
2022-10-24T10:45:19.239Z,95234.53
2022-10-24T10:48:00.645Z,95227.38
2022-10-24T10:50:37.681Z,95218.03
2022-10-24T10:53:29.506Z,95219.63
2022-10-24T10:56:06.366Z,95225.72
2022-10-24T10:58:43.540Z,95228.75
2022-10-24T11:01:23.035Z,95226.31
2022-10-24T11:03:59.210Z,95235.13
2022-10-24T11:06:39.966Z,95223.53
2022-10-24T11:09:28.584Z,95223.09
2022-10-24T11:12:05.287Z,95237.28
2022-10-24T11:14:36.096Z,95243.81
2022-10-24T11:17:12.805Z,95244.88
2022-10-24T11:20:02.492Z,95254.88
2022-10-24T11:22:35.928Z,95256.22
2022-10-24T11:25:10.529Z,95264.38
2022-10-24T11:27:43.179Z,95254.00
2022-10-24T11:30:16.392Z,95259.38
2022-10-24T11:32:51.108Z,95252.59
2022-10-24T11:35:28.745Z,95255.22
2022-10-24T11:38:01.211Z,95251.88
2022-10-24T11:40:31.110Z,95246.72
2022-10-24T11:43:07.900Z,95248.19
2022-10-24T11:45:44.663Z,95247.16
2022-10-24T11:48:22.094Z,95248.31
2022-10-24T11:50:59.892Z,95246.38
2022-10-24T11:53:48.444Z,95244.66
2022-10-24T11:56:23.588Z,95253.97
2022-10-24T11:58:59.983Z,95264.06
2022-10-24T12:01:56.959Z,95271.22
2022-10-24T12:05:02.531Z,95276.19
2022-10-24T12:08:03.759Z,95284.50
2022-10-24T12:11:04.025Z,95281.78
2022-10-24T12:16:47.097Z,95253.25
2022-10-24T12:19:17.792Z,95258.19
2022-10-24T12:21:49.897Z,95259.09
2022-10-24T12:24:30.099Z,95254.63
2022-10-24T12:27:02.618Z,95251.31
2022-10-24T12:29:33.609Z,95234.84
2022-10-24T12:32:31.370Z,95226.50
2022-10-24T12:37:49.142Z,95234.22
2022-10-24T12:40:50.925Z,95247.31
2022-10-24T12:43:31.151Z,95269.50
2022-10-24T12:46:01.475Z,95265.69
2022-10-24T12:48:33.308Z,95254.97
2022-10-24T12:51:20.866Z,95254.22
2022-10-24T12:54:14.700Z,95252.44
2022-10-24T12:57:15.894Z,95257.38
2022-10-24T12:59:47.741Z,95267.31
2022-10-24T13:02:36.032Z,95268.88
2022-10-24T13:05:17.258Z,95260.00
2022-10-24T13:08:09.854Z,95259.78
2022-10-24T13:11:04.025Z,95262.31
2022-10-24T13:14:04.208Z,95252.84
2022-10-24T13:16:41.036Z,95240.75
2022-10-24T13:19:17.088Z,95232.19
2022-10-24T13:21:49.462Z,95232.97
2022-10-24T13:24:29.755Z,95231.75
2022-10-24T13:27:32.126Z,95225.81
2022-10-24T13:30:03.153Z,95210.19
2022-10-24T13:32:35.716Z,95200.88
2022-10-24T13:35:06.841Z,95205.50
2022-10-24T13:37:42.335Z,95221.28
2022-10-24T13:40:16.804Z,95217.31
2022-10-24T13:42:51.692Z,95204.22
2022-10-24T13:45:26.159Z,95186.97
2022-10-24T13:47:59.057Z,95173.06
2022-10-24T13:50:33.052Z,95181.94
2022-10-24T13:53:13.287Z,95188.81
2022-10-24T13:55:46.495Z,95196.09
2022-10-24T13:58:19.397Z,95225.97
2022-10-24T14:00:52.265Z,95215.31
2022-10-24T14:03:23.284Z,95207.41
2022-10-24T14:05:53.588Z,95195.75
2022-10-24T14:08:27.258Z,95179.31
2022-10-24T14:10:56.086Z,95175.97
2022-10-24T14:13:26.253Z,95192.63
2022-10-24T14:15:56.360Z,95221.63
2022-10-24T14:18:24.232Z,95212.72
2022-10-24T14:20:54.311Z,95188.94
2022-10-24T14:23:28.098Z,95205.22
2022-10-24T14:25:58.678Z,95205.41
2022-10-24T14:28:31.149Z,95198.88
2022-10-24T14:31:01.221Z,95190.34
2022-10-24T14:33:30.398Z,95195.31
2022-10-24T14:36:00.125Z,95193.94
2022-10-24T14:38:29.830Z,95180.06
2022-10-24T14:41:08.747Z,95158.44
2022-10-24T14:43:41.860Z,95115.22
2022-10-24T14:46:28.011Z,95123.28
2022-10-24T14:48:56.127Z,95152.09
2022-10-24T14:51:28.335Z,95162.06
2022-10-24T14:53:58.261Z,95168.63
2022-10-24T14:56:29.820Z,95152.38
2022-10-24T14:58:59.731Z,95150.06
2022-10-24T15:01:30.730Z,95164.50
2022-10-24T15:04:01.096Z,95171.44
2022-10-24T15:06:36.902Z,95166.44
2022-10-24T15:09:16.918Z,95183.75
2022-10-24T15:11:50.461Z,95181.56
2022-10-24T15:14:38.578Z,95198.81
2022-10-24T15:17:29.851Z,95193.66
2022-10-24T15:20:02.548Z,95179.03
2022-10-24T15:22:36.530Z,95189.34
2022-10-24T15:25:08.520Z,95164.59
2022-10-24T15:27:41.833Z,95175.31
2022-10-24T15:30:15.189Z,95197.69
2022-10-24T15:32:43.401Z,95175.94
2022-10-24T15:35:11.733Z,95191.56
2022-10-24T15:37:39.686Z,95193.38
2022-10-24T15:40:18.379Z,95174.25
2022-10-24T15:42:46.738Z,95194.00
2022-10-24T15:45:16.362Z,95196.41
2022-10-24T15:47:44.722Z,95195.81
2022-10-24T15:50:15.027Z,95207.91
2022-10-24T15:52:43.583Z,95209.69
2022-10-24T15:55:17.815Z,95205.75
2022-10-24T15:57:46.682Z,95204.38
2022-10-24T16:00:16.652Z,95202.22
2022-10-24T16:02:46.791Z,95211.13
2022-10-24T16:05:17.664Z,95214.34
2022-10-24T16:07:45.655Z,95217.91
2022-10-24T16:10:21.130Z,95210.38
2022-10-24T16:12:49.944Z,95222.47
2022-10-24T16:15:20.830Z,95218.72
2022-10-24T16:17:48.916Z,95228.03
2022-10-24T16:20:17.341Z,95228.63
2022-10-24T16:22:45.380Z,95218.13
2022-10-24T16:25:17.785Z,95226.84
2022-10-24T16:27:45.804Z,95207.28
2022-10-24T16:30:14.573Z,95225.50
2022-10-24T16:32:42.470Z,95226.06
2022-10-24T16:35:12.944Z,95232.56
2022-10-24T16:37:40.744Z,95242.06
2022-10-24T16:40:09.395Z,95240.88
2022-10-24T16:42:38.496Z,95240.09
2022-10-24T16:45:06.964Z,95244.06
2022-10-24T16:47:34.922Z,95243.69
2022-10-24T16:50:03.180Z,95245.88
2022-10-24T16:52:30.998Z,95251.44
2022-10-24T16:54:58.723Z,95256.34
2022-10-24T16:57:26.661Z,95244.50
2022-10-24T16:59:55.978Z,95242.56
2022-10-24T17:02:23.783Z,95239.97
2022-10-24T17:04:51.629Z,95242.16
2022-10-24T17:07:19.624Z,95247.28
2022-10-24T17:09:49.215Z,95245.72
2022-10-24T17:12:21.297Z,95244.72
2022-10-24T17:14:49.383Z,95238.19
2022-10-24T17:17:18.516Z,95241.97
2022-10-24T17:19:48.301Z,95239.38
2022-10-24T17:22:16.514Z,95254.81
2022-10-24T17:24:45.758Z,95256.22
2022-10-24T17:27:14.515Z,95269.66
2022-10-24T17:29:44.388Z,95284.50
2022-10-24T17:32:13.288Z,95271.47
2022-10-24T17:34:44.120Z,95269.06
2022-10-24T17:37:21.382Z,95274.81
2022-10-24T17:39:51.416Z,95273.44
2022-10-24T17:42:21.169Z,95264.91
2022-10-24T17:44:49.624Z,95272.03
2022-10-24T17:47:17.847Z,95269.25
2022-10-24T17:49:47.249Z,95271.63
2022-10-24T17:52:20.722Z,95271.63
2022-10-24T17:54:49.077Z,95266.09
2022-10-24T17:57:16.927Z,95267.88
2022-10-24T17:59:44.789Z,95276.19
2022-10-24T18:02:14.800Z,95273.81
2022-10-24T18:04:44.709Z,95274.22
2022-10-24T18:07:15.006Z,95274.22
2022-10-24T18:09:42.814Z,95267.50
2022-10-24T18:12:10.776Z,95261.56
2022-10-24T18:14:38.693Z,95264.34
2022-10-24T18:17:06.621Z,95264.53
2022-10-24T18:19:34.636Z,95269.88
2022-10-24T18:22:02.966Z,95260.19
2022-10-24T18:24:32.308Z,95274.22
2022-10-24T18:27:00.294Z,95263.53
2022-10-24T18:29:28.249Z,95257.22
2022-10-24T18:31:56.214Z,95257.03
2022-10-24T18:34:24.500Z,95247.97
2022-10-24T18:36:52.369Z,95253.91
2022-10-24T18:39:20.544Z,95246.75
2022-10-24T18:41:57.244Z,95247.97
2022-10-24T18:44:28.309Z,95254.09
2022-10-24T18:47:01.522Z,95256.47
2022-10-24T18:49:30.311Z,95252.91
2022-10-24T18:52:14.690Z,95257.25
2022-10-24T18:54:54.974Z,95268.09
2022-10-24T18:57:30.930Z,95263.38
2022-10-24T19:00:00.140Z,95265.13
2022-10-24T19:03:09.703Z,95257.81
2022-10-24T19:05:43.477Z,95259.00
2022-10-24T19:08:14.638Z,95262.34
2022-10-24T19:10:42.923Z,95250.28
2022-10-24T19:13:13.183Z,95247.34
2022-10-24T19:15:44.268Z,95228.38
2022-10-24T19:18:15.048Z,95229.38
2022-10-24T19:20:43.356Z,95223.44
2022-10-24T19:23:12.585Z,95223.84
2022-10-24T19:25:40.487Z,95223.25
2022-10-24T19:28:08.411Z,95223.63
2022-10-24T19:30:38.075Z,95230.38
2022-10-24T19:33:05.877Z,95223.66
2022-10-24T19:35:33.635Z,95235.91
2022-10-24T19:38:01.431Z,95237.69
2022-10-24T19:40:29.169Z,95237.28
2022-10-24T19:42:57.548Z,95245.78
2022-10-24T19:45:25.558Z,95246.78
2022-10-24T19:47:56.534Z,95239.66
2022-10-24T19:50:25.321Z,95233.72
2022-10-24T19:52:53.066Z,95224.44
2022-10-24T19:55:22.598Z,95219.88
2022-10-24T19:57:50.386Z,95227.00
2022-10-24T20:00:18.536Z,95221.09
2022-10-24T20:02:46.501Z,95221.50
2022-10-24T20:05:15.946Z,95229.44
2022-10-24T20:07:43.739Z,95235.56
2022-10-24T20:10:11.620Z,95223.09
2022-10-24T20:12:39.488Z,95243.66
2022-10-24T20:15:08.692Z,95248.38
2022-10-24T20:17:36.894Z,95248.97
2022-10-24T20:20:05.194Z,95246.22
2022-10-24T20:22:34.539Z,95246.22
2022-10-24T20:25:02.480Z,95243.63
2022-10-24T20:27:30.340Z,95249.41
2022-10-24T20:29:58.511Z,95242.84
2022-10-24T20:32:26.789Z,95241.28
2022-10-24T20:34:54.674Z,95242.84
2022-10-24T20:37:22.550Z,95248.97
2022-10-24T20:39:52.219Z,95249.56
2022-10-24T20:42:22.273Z,95232.81
2022-10-24T20:44:50.391Z,95235.97
2022-10-24T20:47:18.325Z,95249.41
2022-10-24T20:49:46.324Z,95250.78
2022-10-24T20:52:14.253Z,95250.78
2022-10-24T20:54:42.242Z,95264.03
2022-10-24T20:57:11.642Z,95268.56
2022-10-24T20:59:39.546Z,95284.00
2022-10-24T21:02:09.869Z,95276.28
2022-10-24T21:04:38.035Z,95278.25
2022-10-24T21:07:06.180Z,95277.25
2022-10-24T21:09:35.202Z,95290.09
2022-10-24T21:12:05.881Z,95274.28
2022-10-24T21:14:35.048Z,95278.63
2022-10-24T21:17:02.804Z,95277.06
2022-10-24T21:19:30.610Z,95284.38
2022-10-24T21:21:58.427Z,95291.47
2022-10-24T21:24:26.135Z,95299.41
2022-10-24T21:26:54.106Z,95297.41
2022-10-24T21:29:32.771Z,95296.63
2022-10-24T21:32:03.051Z,95305.34
2022-10-24T21:34:34.225Z,95315.22
2022-10-24T21:37:03.316Z,95314.22
2022-10-24T21:39:31.234Z,95312.63
2022-10-24T21:41:59.042Z,95322.91
2022-10-24T21:44:26.783Z,95327.06
2022-10-24T21:46:55.258Z,95329.81
2022-10-24T21:49:25.591Z,95329.81
2022-10-24T21:51:53.511Z,95322.72
2022-10-24T21:54:23.185Z,95330.81
2022-10-24T21:56:51.107Z,95323.91
2022-10-24T21:59:20.678Z,95331.34
2022-10-24T22:01:50.132Z,95360.28
2022-10-24T22:04:18.857Z,95367.84
2022-10-24T22:06:48.620Z,95364.97
2022-10-24T22:09:18.937Z,95372.53
2022-10-24T22:11:46.934Z,95377.16
2022-10-24T22:14:16.234Z,95390.13
2022-10-24T22:16:44.948Z,95373.94
2022-10-24T22:19:14.701Z,95381.13
2022-10-24T22:21:44.373Z,95384.84
2022-10-24T22:24:15.458Z,95398.69
2022-10-24T22:26:43.819Z,95390.66
2022-10-24T22:29:13.844Z,95407.63
2022-10-24T22:31:42.174Z,95398.06
2022-10-24T22:34:15.520Z,95398.06
2022-10-24T22:36:50.323Z,95401.19
2022-10-24T22:39:22.424Z,95415.84
2022-10-24T22:41:51.193Z,95413.78
2022-10-24T22:44:21.463Z,95411.69
2022-10-24T22:47:09.160Z,95411.44
2022-10-24T22:49:49.322Z,95429.06
2022-10-24T22:52:17.565Z,95435.63
2022-10-24T22:54:47.539Z,95439.19
2022-10-24T22:57:15.747Z,95442.38
2022-10-24T22:59:44.096Z,95451.69
2022-10-24T23:02:24.961Z,95463.53
2022-10-24T23:05:01.488Z,95451.94
2022-10-24T23:07:38.018Z,95440.00
2022-10-24T23:10:11.948Z,95437.75
2022-10-24T23:12:40.749Z,95422.75
2022-10-24T23:15:13.830Z,95427.88
2022-10-24T23:17:42.445Z,95429.22
2022-10-24T23:20:22.854Z,95430.16
2022-10-24T23:22:58.344Z,95427.44
2022-10-24T23:25:39.016Z,95427.25
2022-10-24T23:28:13.629Z,95428.50
2022-10-24T23:30:41.957Z,95447.31
2022-10-24T23:33:15.576Z,95449.50
2022-10-24T23:35:44.843Z,95450.09
2022-10-24T23:38:13.083Z,95466.88
2022-10-24T23:40:42.806Z,95465.31
2022-10-24T23:43:17.587Z,95469.69
2022-10-24T23:45:51.280Z,95468.06
2022-10-24T23:48:28.892Z,95470.59
2022-10-24T23:51:03.735Z,95472.16
2022-10-24T23:53:43.173Z,95473.09
2022-10-24T23:56:13.720Z,95462.47
2022-10-24T23:58:41.492Z,95463.91
